ESCF

Malmen Air Base Airport

Linköping, Sweden
METAR ESCF 231420Z AUTO 29009KT 9999 SCT052/// 14/04 Q1001
Observed Flight Rules
Sep-23 @ 14:20 UTC (13 minutes ago) Visual Flight Rules
Wind Visibility Clouds
290° at 9 knots 10,000+ meters
Temperatures Readings
Current 14°C / 57°F
Dewpoint 4°C / 39°F
Humidity 51%
Altimeter 29.56" Hg
Pressure 1001 hPa
Elevation 117
METAR ESCF 231420Z AUTO 29009KT 9999 SCT052/// 14/04 Q1001
Observed Flight Rules
Sep-23 @ 14:20 UTC
(13 minutes ago)
VFR
Wind Visibility
290° at 9 knots 10,000+ meters
Clouds
Temperature Dewpoint
14°C / 57°F 4°C / 39°F
Humidity Altimeter Pressure
51% 29.56" Hg 1001 hPa